Nearby METAR Reports

 

KSJC - San Jose, California, USA
Distance from station: NE 9mi, 14km
Updated: Sun, 24-Jan-2021 8:53pm MST
Overcast
Overcast
 Wind from SE
Wind: SE 9 mph , 15 km/h
Temperature: 46°F , 8°C
Wind Chill: 41°F , 5°C
Dew Point: 43°F , 6°C
Humidity: 87%
Barometer: 29.84 inHg , 1010.5 hPa
Clouds: Overcast
Visibility: 10 miles , 16 km
Cloud details: Few Clouds 100 ft
Mostly cloudy 2100 ft
Overcast 12000 ft
2021/01/25 03:53 KSJC 250353Z 14008KT 10SM FEW001 BKN021 OVC120 08/06 A2984 RMK AO2 RAE33 SLP102 P0001 T00780056
KNUQ - Moffett Nas/Mtn, California, USA
Distance from station: N 9mi, 14km
Updated: Sun, 24-Jan-2021 9:10pm MST
Light rain, Overcast
Light rain, Overcast
 Wind from W
Wind: W 12 mph , 19 km/h
Temperature: 46°F , 8°C
Wind Chill: 40°F , 4°C
Dew Point: 45°F , 7°C
Humidity: 93%
Barometer: 29.84 inHg , 1010.5 hPa
Summary: Light rain
Clouds: Overcast
Visibility: 5 miles , 8 km
Cloud details: Few Clouds 700 ft
Partly cloudy 1800 ft
Overcast 2200 ft
2021/01/25 04:10 KNUQ 250410Z AUTO 28010KT 230V310 5SM -RA FEW007 SCT018 OVC022 08/07 A2984 RMK AO2
 
KPAO - Palo Alto, California, USA
Distance from station: NNW 14mi, 23km
Updated: Sun, 24-Jan-2021 8:57pm MST
Rain, Mostly cloudy
Rain, Mostly cloudy
 Wind from NW
Wind: NW 18 mph , 30 km/h, Gust: 24 mph , 39 km/h
Temperature: 46°F , 8°C
Wind Chill: 39°F , 4°C
Dew Point: 43°F , 6°C
Humidity: 87%
Barometer: 29.85 inHg , 1010.8 hPa
Summary: Rain
Clouds: Mostly cloudy
Visibility: 10 miles , 16 km
Cloud details: Partly cloudy 2000 ft
Mostly cloudy 3500 ft
2021/01/25 03:57 KPAO 250357Z 32016G21KT 10SM RA SCT020 BKN035 08/06 A2985
KRHV - San Jose/Reid, California, USA
Distance from station: ENE 12mi, 19km
Updated: Sun, 24-Jan-2021 8:50pm MST
Overcast
Overcast
 Wind from varies
Wind: varies 5 mph , 7 km/h
Temperature: 45°F , 7°C
Wind Chill: 42°F , 6°C
Dew Point: 41°F , 5°C
Humidity: 87%
Barometer: 29.85 inHg , 1010.8 hPa
Clouds: Overcast
Visibility: 10 miles , 16 km
Cloud details: Mostly cloudy 3000 ft
Overcast 12000 ft
2021/01/25 03:50 KRHV 250350Z VRB04KT 10SM BKN030 OVC120 07/05 A2985
 
KOAK - Oakland, California, USA
Distance from station: NNW 31mi, 50km
Updated: Sun, 24-Jan-2021 8:53pm MST
Light rain, Overcast
Light rain, Overcast
 Wind from NNW
Wind: NNW 13 mph , 20 km/h, Gust: 21 mph , 33 km/h
Temperature: 50°F , 10°C
Wind Chill: 45°F , 7°C
Dew Point: 43°F , 6°C
Humidity: 76%
Barometer: 29.85 inHg , 1010.8 hPa
Summary: Light rain
Clouds: Overcast
Visibility: 5 miles , 8 km
Cloud details: Few Clouds 1500 ft
Mostly cloudy 4900 ft
Overcast 6000 ft
2021/01/25 03:53 KOAK 250353Z 34011G18KT 5SM -RA FEW015 BKN049 OVC060 10/06 A2985 RMK AO2 WSHFT 0314 RAB14 SLP106 P0002 T01000056
KSQL - San Carlos Airpo, California, USA
Distance from station: NW 21mi, 34km
Updated: Sun, 24-Jan-2021 8:49pm MST
Light rain, Overcast
Light rain, Overcast
 Wind from WNW
Wind: WNW 12 mph , 19 km/h
Temperature: 48°F , 9°C
Wind Chill: 43°F , 6°C
Dew Point: 45°F , 7°C
Humidity: 87%
Barometer: 29.85 inHg , 1010.8 hPa
Summary: Light rain
Clouds: Overcast
Visibility: 4 miles , 6 km
Cloud details: Few Clouds 800 ft
Partly cloudy 1400 ft
Overcast 3000 ft
2021/01/25 03:49 KSQL 250349Z 30010KT 4SM -RA FEW008 SCT014 OVC030 09/07 A2985
 
KSFO - San Francisco, California, USA
Distance from station: NW 30mi, 49km
Updated: Sun, 24-Jan-2021 9:08pm MST
Light rain, Overcast
Light rain, Overcast
 Wind from NW
Wind: NW 23 mph , 37 km/h, Gust: 33 mph , 54 km/h
Temperature: 48°F , 9°C
Wind Chill: 40°F , 4°C
Dew Point: 39°F , 4°C
Humidity: 71%
Barometer: 29.85 inHg , 1010.8 hPa
Summary: Light rain
Clouds: Overcast
Visibility: 10 miles , 16 km
Cloud details: Few Clouds 1700 ft
Partly cloudy 2100 ft
Overcast 5500 ft
2021/01/25 04:08 KSFO 250408Z 31020G29KT 10SM -RA FEW017 SCT021 OVC055 09/04 A2985 RMK AO2 PK WND 30029/0407 P0000 T00890039 $
KE16 - San Martin, California, USA
Distance from station: ESE 27mi, 43km
Updated: Sun, 24-Jan-2021 9:15pm MST
Overcast
Overcast
 Wind from calm
Wind: Calm
Temperature: 45°F , 7°C
Dew Point: 45°F , 7°C
Humidity: 100%
Barometer: 29.86 inHg , 1011.2 hPa
Clouds: Overcast
Visibility: 10 miles , 16 km
Cloud details: Mostly cloudy 1900 ft
Overcast 3900 ft
2021/01/25 04:15 KE16 250415Z AUTO 00000KT 10SM BKN019 OVC039 07/07 A2986 RMK AO2
 
KWVI - Watsonville, California, USA
Distance from station: SSE 27mi, 44km
Updated: Sun, 24-Jan-2021 9:18pm MST
Overcast
Overcast
 Wind from calm
Wind: Calm
Temperature: 45°F , 7°C
Dew Point: 45°F , 7°C
Humidity: 100%
Barometer: 29.86 inHg , 1011.2 hPa
Clouds: Overcast
Visibility: 10 miles , 16 km
Cloud details: Partly cloudy 800 ft
Mostly cloudy 2700 ft
Overcast 3700 ft
2021/01/25 04:18 KWVI 250418Z AUTO 00000KT 10SM SCT008 BKN027 OVC037 07/07 A2986 RMK AO2 T00720067
KHAF - Half Moon Bay, California, USA
Distance from station: WNW 31mi, 50km
Updated: Sun, 24-Jan-2021 9:15pm MST
Light rain, Overcast
Light rain, Overcast
 Wind from NNW
Wind: NNW 15 mph , 24 km/h, Gust: 24 mph , 39 km/h
Temperature: 46°F , 8°C
Wind Chill: 40°F , 4°C
Dew Point: 41°F , 5°C
Humidity: 82%
Barometer: 29.87 inHg , 1011.5 hPa
Summary: Light rain
Clouds: Overcast
Visibility: 5 miles , 8 km
Cloud details: Few Clouds 2400 ft
Mostly cloudy 3400 ft
Overcast 4300 ft
2021/01/25 04:15 KHAF 250415Z AUTO 34013G21KT 5SM -RA FEW024 BKN034 OVC043 08/05 A2987 RMK AO2
 
KHWD - Hayward, California, USA
Distance from station: N 28mi, 44km
Updated: Sun, 24-Jan-2021 9:01pm MST
Light rain, Overcast
Light rain, Overcast
 Wind from NNW
Wind: NNW 12 mph , 19 km/h
Temperature: 46°F , 8°C
Wind Chill: 40°F , 4°C
Dew Point: 41°F , 5°C
Humidity: 82%
Barometer: 29.83 inHg , 1010.2 hPa
Summary: Light rain
Clouds: Overcast
Visibility: 10 miles , 16 km
Cloud details: Few Clouds 1000 ft
Partly cloudy 3600 ft
Overcast 4300 ft
2021/01/25 04:01 KHWD 250401Z 34010KT 10SM -RA FEW010 SCT036 OVC043 08/05 A2983 RMK AO2 WSHFT 0341 P0000 T00780050
KLVK - Livermore, California, USA
Distance from station: NNE 31mi, 51km
Updated: Sun, 24-Jan-2021 8:53pm MST
Overcast
Overcast
 Wind from S
Wind: S 10 mph , 17 km/h
Temperature: 45°F , 7°C
Wind Chill: 40°F , 4°C
Dew Point: 41°F , 5°C
Humidity: 87%
Barometer: 29.79 inHg , 1008.8 hPa
Clouds: Overcast
Visibility: 10 miles , 16 km
Cloud details: Mostly cloudy 1900 ft
Mostly cloudy 2400 ft
Overcast 3400 ft
2021/01/25 03:53 KLVK 250353Z AUTO 19009KT 10SM BKN019 BKN024 OVC034 07/05 A2979 RMK AO2 SLP087 T00720050